sensor_id;sensor_type;location;lat;lon;timestamp;temperature;humidity
27423;DHT22;14878;50.778;0.258;2022-07-23T00:00:35;17.30;99.90
27423;DHT22;14878;50.778;0.258;2022-07-23T00:01:36;17.20;99.90
27423;DHT22;14878;50.778;0.258;2022-07-23T00:02:37;17.20;99.90
27423;DHT22;14878;50.778;0.258;2022-07-23T00:03:38;17.10;99.90
27423;DHT22;14878;50.778;0.258;2022-07-23T00:04:38;17.10;99.90
27423;DHT22;14878;50.778;0.258;2022-07-23T00:05:39;17.10;99.90
27423;DHT22;14878;50.778;0.258;2022-07-23T00:06:40;17.10;99.90
27423;DHT22;14878;50.778;0.258;2022-07-23T00:07:41;17.10;99.90
27423;DHT22;14878;50.778;0.258;2022-07-23T00:08:41;17.10;99.90
27423;DHT22;14878;50.778;0.258;2022-07-23T00:09:42;17.10;99.90
27423;DHT22;14878;50.778;0.258;2022-07-23T00:10:43;17.10;99.90
27423;DHT22;14878;50.778;0.258;2022-07-23T00:11:44;17.10;99.90
27423;DHT22;14878;50.778;0.258;2022-07-23T00:12:45;17.10;99.90
27423;DHT22;14878;50.778;0.258;2022-07-23T00:13:46;17.10;99.90
27423;DHT22;14878;50.778;0.258;2022-07-23T00:14:46;17.10;99.90
27423;DHT22;14878;50.778;0.258;2022-07-23T00:15:47;17.10;99.90
27423;DHT22;14878;50.778;0.258;2022-07-23T00:16:48;17.10;99.90
27423;DHT22;14878;50.778;0.258;2022-07-23T00:17:49;17.10;99.90
27423;DHT22;14878;50.778;0.258;2022-07-23T00:18:49;17.10;99.90
27423;DHT22;14878;50.778;0.258;2022-07-23T00:19:50;17.00;99.90
27423;DHT22;14878;50.778;0.258;2022-07-23T00:20:53;17.00;99.90
27423;DHT22;14878;50.778;0.258;2022-07-23T00:21:54;17.10;99.90
27423;DHT22;14878;50.778;0.258;2022-07-23T00:22:55;17.10;99.90
27423;DHT22;14878;50.778;0.258;2022-07-23T00:23:56;17.10;99.90
27423;DHT22;14878;50.778;0.258;2022-07-23T00:25:00;17.10;99.90
27423;DHT22;14878;50.778;0.258;2022-07-23T00:26:01;17.10;99.90
27423;DHT22;14878;50.778;0.258;2022-07-23T00:27:02;17.10;99.90
27423;DHT22;14878;50.778;0.258;2022-07-23T00:28:03;17.20;99.90
27423;DHT22;14878;50.778;0.258;2022-07-23T00:29:07;17.20;99.90
27423;DHT22;14878;50.778;0.258;2022-07-23T00:30:09;17.20;99.90
27423;DHT22;14878;50.778;0.258;2022-07-23T00:31:13;17.20;99.90
27423;DHT22;14878;50.778;0.258;2022-07-23T00:32:14;17.10;99.90
27423;DHT22;14878;50.778;0.258;2022-07-23T00:33:14;17.20;99.90
27423;DHT22;14878;50.778;0.258;2022-07-23T00:34:18;17.20;99.90
27423;DHT22;14878;50.778;0.258;2022-07-23T00:35:21;17.20;99.90
27423;DHT22;14878;50.778;0.258;2022-07-23T00:36:29;17.20;99.90
27423;DHT22;14878;50.778;0.258;2022-07-23T00:37:31;17.10;99.90
27423;DHT22;14878;50.778;0.258;2022-07-23T00:38:32;17.10;99.90
27423;DHT22;14878;50.778;0.258;2022-07-23T00:39:33;17.10;99.90
27423;DHT22;14878;50.778;0.258;2022-07-23T00:40:34;17.10;99.90
27423;DHT22;14878;50.778;0.258;2022-07-23T00:41:35;17.00;99.90
27423;DHT22;14878;50.778;0.258;2022-07-23T00:42:35;17.00;99.90
27423;DHT22;14878;50.778;0.258;2022-07-23T00:43:36;17.00;99.90
27423;DHT22;14878;50.778;0.258;2022-07-23T00:44:37;17.00;99.90
27423;DHT22;14878;50.778;0.258;2022-07-23T00:45:38;17.00;99.90
27423;DHT22;14878;50.778;0.258;2022-07-23T00:46:44;17.00;99.90
27423;DHT22;14878;50.778;0.258;2022-07-23T00:47:45;17.00;99.90
27423;DHT22;14878;50.778;0.258;2022-07-23T00:48:46;17.10;99.90
27423;DHT22;14878;50.778;0.258;2022-07-23T00:49:49;17.10;99.90
27423;DHT22;14878;50.778;0.258;2022-07-23T00:50:50;17.10;99.90
27423;DHT22;14878;50.778;0.258;2022-07-23T00:51:51;17.10;99.90
27423;DHT22;14878;50.778;0.258;2022-07-23T00:52:56;17.10;99.90
27423;DHT22;14878;50.778;0.258;2022-07-23T00:53:57;17.10;99.90
27423;DHT22;14878;50.778;0.258;2022-07-23T00:54:58;17.10;99.90
27423;DHT22;14878;50.778;0.258;2022-07-23T00:55:59;17.10;99.90
27423;DHT22;14878;50.778;0.258;2022-07-23T00:57:00;17.10;99.90
27423;DHT22;14878;50.778;0.258;2022-07-23T00:58:01;17.00;99.90
27423;DHT22;14878;50.778;0.258;2022-07-23T00:59:02;17.10;99.90
27423;DHT22;14878;50.778;0.258;2022-07-23T01:00:07;17.10;99.90
27423;DHT22;14878;50.778;0.258;2022-07-23T01:01:09;17.10;99.90
27423;DHT22;14878;50.778;0.258;2022-07-23T01:02:10;17.20;99.90
27423;DHT22;14878;50.778;0.258;2022-07-23T01:03:14;17.20;99.90
27423;DHT22;14878;50.778;0.258;2022-07-23T01:04:17;17.30;99.90
27423;DHT22;14878;50.778;0.258;2022-07-23T01:05:21;17.30;99.90
27423;DHT22;14878;50.778;0.258;2022-07-23T01:06:22;17.30;99.90
27423;DHT22;14878;50.778;0.258;2022-07-23T01:07:23;17.30;99.90
27423;DHT22;14878;50.778;0.258;2022-07-23T01:08:24;17.30;99.90
27423;DHT22;14878;50.778;0.258;2022-07-23T01:09:25;17.20;99.90
27423;DHT22;14878;50.778;0.258;2022-07-23T01:10:26;17.20;99.90
27423;DHT22;14878;50.778;0.258;2022-07-23T01:11:35;17.20;99.90
27423;DHT22;14878;50.778;0.258;2022-07-23T01:12:36;17.20;99.90
27423;DHT22;14878;50.778;0.258;2022-07-23T01:13:41;17.20;99.90
27423;DHT22;14878;50.778;0.258;2022-07-23T01:14:42;17.20;99.90
27423;DHT22;14878;50.778;0.258;2022-07-23T01:15:43;17.20;99.90
27423;DHT22;14878;50.778;0.258;2022-07-23T01:16:46;17.30;99.90
27423;DHT22;14878;50.778;0.258;2022-07-23T01:17:47;17.40;99.90
27423;DHT22;14878;50.778;0.258;2022-07-23T01:18:47;17.30;99.90
27423;DHT22;14878;50.778;0.258;2022-07-23T01:19:51;17.30;99.90
27423;DHT22;14878;50.778;0.258;2022-07-23T01:20:55;17.30;99.90
27423;DHT22;14878;50.778;0.258;2022-07-23T01:21:57;17.20;99.90
27423;DHT22;14878;50.778;0.258;2022-07-23T01:22:59;17.20;99.90
27423;DHT22;14878;50.778;0.258;2022-07-23T01:24:00;17.20;99.90
27423;DHT22;14878;50.778;0.258;2022-07-23T01:25:00;17.20;99.90
27423;DHT22;14878;50.778;0.258;2022-07-23T01:26:01;17.20;99.90
27423;DHT22;14878;50.778;0.258;2022-07-23T01:27:02;17.20;99.90
27423;DHT22;14878;50.778;0.258;2022-07-23T01:28:03;17.10;99.90
27423;DHT22;14878;50.778;0.258;2022-07-23T01:29:04;17.10;99.90
27423;DHT22;14878;50.778;0.258;2022-07-23T01:30:06;17.10;99.90
27423;DHT22;14878;50.778;0.258;2022-07-23T01:31:07;17.10;99.90
27423;DHT22;14878;50.778;0.258;2022-07-23T01:32:07;17.10;99.90
27423;DHT22;14878;50.778;0.258;2022-07-23T01:33:08;17.10;99.90
27423;DHT22;14878;50.778;0.258;2022-07-23T01:34:09;16.90;99.90
27423;DHT22;14878;50.778;0.258;2022-07-23T01:35:10;17.00;99.90
27423;DHT22;14878;50.778;0.258;2022-07-23T01:36:12;17.00;99.90
27423;DHT22;14878;50.778;0.258;2022-07-23T01:37:15;17.00;99.90
27423;DHT22;14878;50.778;0.258;2022-07-23T01:38:16;17.00;99.90
27423;DHT22;14878;50.778;0.258;2022-07-23T01:39:16;17.00;99.90
27423;DHT22;14878;50.778;0.258;2022-07-23T01:40:17;17.00;99.90
27423;DHT22;14878;50.778;0.258;2022-07-23T01:41:18;17.10;99.90
27423;DHT22;14878;50.778;0.258;2022-07-23T01:42:19;17.10;99.90
27423;DHT22;14878;50.778;0.258;2022-07-23T01:43:20;17.10;99.90
27423;DHT22;14878;50.778;0.258;2022-07-23T01:44:20;17.10;99.90
27423;DHT22;14878;50.778;0.258;2022-07-23T01:45:21;17.10;99.90
27423;DHT22;14878;50.778;0.258;2022-07-23T01:46:22;17.00;99.90
27423;DHT22;14878;50.778;0.258;2022-07-23T01:47:23;17.00;99.90
27423;DHT22;14878;50.778;0.258;2022-07-23T01:48:23;17.00;99.90
27423;DHT22;14878;50.778;0.258;2022-07-23T01:49:24;17.10;99.90
27423;DHT22;14878;50.778;0.258;2022-07-23T01:50:25;17.10;99.90
27423;DHT22;14878;50.778;0.258;2022-07-23T01:51:26;17.10;99.90
27423;DHT22;14878;50.778;0.258;2022-07-23T01:52:26;17.10;99.90
27423;DHT22;14878;50.778;0.258;2022-07-23T01:53:27;17.10;99.90
27423;DHT22;14878;50.778;0.258;2022-07-23T01:54:31;17.10;99.90
27423;DHT22;14878;50.778;0.258;2022-07-23T01:55:31;17.10;99.90
27423;DHT22;14878;50.778;0.258;2022-07-23T01:56:32;17.00;99.90
27423;DHT22;14878;50.778;0.258;2022-07-23T01:57:33;17.00;99.90
27423;DHT22;14878;50.778;0.258;2022-07-23T01:58:34;17.00;99.90
27423;DHT22;14878;50.778;0.258;2022-07-23T01:59:35;17.00;99.90
27423;DHT22;14878;50.778;0.258;2022-07-23T02:00:36;16.90;99.90
27423;DHT22;14878;50.778;0.258;2022-07-23T02:01:36;17.00;99.90
27423;DHT22;14878;50.778;0.258;2022-07-23T02:02:37;17.00;99.90
27423;DHT22;14878;50.778;0.258;2022-07-23T02:03:38;17.00;99.90
27423;DHT22;14878;50.778;0.258;2022-07-23T02:04:39;17.00;99.90
27423;DHT22;14878;50.778;0.258;2022-07-23T02:05:40;17.00;99.90
27423;DHT22;14878;50.778;0.258;2022-07-23T02:06:41;17.00;99.90
27423;DHT22;14878;50.778;0.258;2022-07-23T02:07:41;16.90;99.90
27423;DHT22;14878;50.778;0.258;2022-07-23T02:08:42;16.90;99.90
27423;DHT22;14878;50.778;0.258;2022-07-23T02:09:43;16.90;99.90
27423;DHT22;14878;50.778;0.258;2022-07-23T02:10:44;16.90;99.90
27423;DHT22;14878;50.778;0.258;2022-07-23T02:11:46;16.90;99.90
27423;DHT22;14878;50.778;0.258;2022-07-23T02:12:46;16.90;99.90
27423;DHT22;14878;50.778;0.258;2022-07-23T02:13:47;16.90;99.90
27423;DHT22;14878;50.778;0.258;2022-07-23T02:14:48;16.90;99.90
27423;DHT22;14878;50.778;0.258;2022-07-23T02:15:49;16.90;99.90
27423;DHT22;14878;50.778;0.258;2022-07-23T02:16:50;16.90;99.90
27423;DHT22;14878;50.778;0.258;2022-07-23T02:17:50;16.90;99.90
27423;DHT22;14878;50.778;0.258;2022-07-23T02:18:51;16.90;99.90
27423;DHT22;14878;50.778;0.258;2022-07-23T02:19:52;16.90;99.90
27423;DHT22;14878;50.778;0.258;2022-07-23T02:20:52;16.90;99.90
27423;DHT22;14878;50.778;0.258;2022-07-23T02:21:53;16.90;99.90
27423;DHT22;14878;50.778;0.258;2022-07-23T02:22:55;17.00;99.90
27423;DHT22;14878;50.778;0.258;2022-07-23T02:23:55;17.10;99.90
27423;DHT22;14878;50.778;0.258;2022-07-23T02:24:56;17.10;99.90
27423;DHT22;14878;50.778;0.258;2022-07-23T02:25:57;17.10;99.90
27423;DHT22;14878;50.778;0.258;2022-07-23T02:26:58;17.20;99.90
27423;DHT22;14878;50.778;0.258;2022-07-23T02:27:58;17.10;99.90
27423;DHT22;14878;50.778;0.258;2022-07-23T02:28:59;17.10;99.90
27423;DHT22;14878;50.778;0.258;2022-07-23T02:30:00;17.10;99.90
27423;DHT22;14878;50.778;0.258;2022-07-23T02:31:01;17.10;99.90
27423;DHT22;14878;50.778;0.258;2022-07-23T02:32:02;17.00;99.90
27423;DHT22;14878;50.778;0.258;2022-07-23T02:33:03;17.00;99.90
27423;DHT22;14878;50.778;0.258;2022-07-23T02:34:04;17.00;99.90
27423;DHT22;14878;50.778;0.258;2022-07-23T02:35:05;17.00;99.90
27423;DHT22;14878;50.778;0.258;2022-07-23T02:36:06;17.10;99.90
27423;DHT22;14878;50.778;0.258;2022-07-23T02:37:07;17.10;99.90
27423;DHT22;14878;50.778;0.258;2022-07-23T02:38:09;17.10;99.90
27423;DHT22;14878;50.778;0.258;2022-07-23T02:39:09;17.20;99.90
27423;DHT22;14878;50.778;0.258;2022-07-23T02:40:10;17.20;99.90
27423;DHT22;14878;50.778;0.258;2022-07-23T02:41:12;17.20;99.90
27423;DHT22;14878;50.778;0.258;2022-07-23T02:42:13;17.10;99.90
27423;DHT22;14878;50.778;0.258;2022-07-23T02:43:13;17.10;99.90
27423;DHT22;14878;50.778;0.258;2022-07-23T02:44:14;17.10;99.90
27423;DHT22;14878;50.778;0.258;2022-07-23T02:45:15;17.10;99.90
27423;DHT22;14878;50.778;0.258;2022-07-23T02:46:16;17.20;99.90
27423;DHT22;14878;50.778;0.258;2022-07-23T02:47:16;17.20;99.90
27423;DHT22;14878;50.778;0.258;2022-07-23T02:48:17;17.20;99.90
27423;DHT22;14878;50.778;0.258;2022-07-23T02:49:18;17.20;99.90
27423;DHT22;14878;50.778;0.258;2022-07-23T02:50:21;17.10;99.90
27423;DHT22;14878;50.778;0.258;2022-07-23T02:51:22;17.10;99.90
27423;DHT22;14878;50.778;0.258;2022-07-23T02:52:22;17.10;99.90
27423;DHT22;14878;50.778;0.258;2022-07-23T02:53:23;17.10;99.90
27423;DHT22;14878;50.778;0.258;2022-07-23T02:54:24;17.10;99.90
27423;DHT22;14878;50.778;0.258;2022-07-23T02:55:25;17.10;99.90
27423;DHT22;14878;50.778;0.258;2022-07-23T02:56:26;17.20;99.90
27423;DHT22;14878;50.778;0.258;2022-07-23T02:57:26;17.10;99.90
27423;DHT22;14878;50.778;0.258;2022-07-23T02:58:27;17.20;99.90
27423;DHT22;14878;50.778;0.258;2022-07-23T02:59:28;17.20;99.90
27423;DHT22;14878;50.778;0.258;2022-07-23T03:00:28;17.10;99.90
27423;DHT22;14878;50.778;0.258;2022-07-23T03:01:29;17.20;99.90
27423;DHT22;14878;50.778;0.258;2022-07-23T03:02:30;17.30;99.90
27423;DHT22;14878;50.778;0.258;2022-07-23T03:03:31;17.30;99.90
27423;DHT22;14878;50.778;0.258;2022-07-23T03:04:32;17.40;99.90
27423;DHT22;14878;50.778;0.258;2022-07-23T03:05:33;17.40;99.90
27423;DHT22;14878;50.778;0.258;2022-07-23T03:06:33;17.40;99.90
27423;DHT22;14878;50.778;0.258;2022-07-23T03:07:34;17.40;99.90
27423;DHT22;14878;50.778;0.258;2022-07-23T03:08:35;17.50;99.90
27423;DHT22;14878;50.778;0.258;2022-07-23T03:09:36;17.40;99.90
27423;DHT22;14878;50.778;0.258;2022-07-23T03:10:37;17.40;99.90
27423;DHT22;14878;50.778;0.258;2022-07-23T03:11:37;17.40;99.90
27423;DHT22;14878;50.778;0.258;2022-07-23T03:12:38;17.40;99.90
27423;DHT22;14878;50.778;0.258;2022-07-23T03:13:40;17.40;99.90
27423;DHT22;14878;50.778;0.258;2022-07-23T03:14:41;17.40;99.90
27423;DHT22;14878;50.778;0.258;2022-07-23T03:15:42;17.40;99.90
27423;DHT22;14878;50.778;0.258;2022-07-23T03:16:43;17.40;99.90
27423;DHT22;14878;50.778;0.258;2022-07-23T03:17:44;17.40;99.90
27423;DHT22;14878;50.778;0.258;2022-07-23T03:18:45;17.40;99.90
27423;DHT22;14878;50.778;0.258;2022-07-23T03:19:46;17.40;99.90
27423;DHT22;14878;50.778;0.258;2022-07-23T03:20:47;17.40;99.90
27423;DHT22;14878;50.778;0.258;2022-07-23T03:21:47;17.50;99.90
27423;DHT22;14878;50.778;0.258;2022-07-23T03:22:48;17.50;99.90
27423;DHT22;14878;50.778;0.258;2022-07-23T03:23:49;17.60;99.90
27423;DHT22;14878;50.778;0.258;2022-07-23T03:24:49;17.70;99.90
27423;DHT22;14878;50.778;0.258;2022-07-23T03:25:56;17.80;99.90
27423;DHT22;14878;50.778;0.258;2022-07-23T03:26:57;17.70;99.90
27423;DHT22;14878;50.778;0.258;2022-07-23T03:27:58;17.70;99.90
27423;DHT22;14878;50.778;0.258;2022-07-23T03:28:58;15.70;99.90
27423;DHT22;14878;50.778;0.258;2022-07-23T03:30:02;17.70;99.90
27423;DHT22;14878;50.778;0.258;2022-07-23T03:31:03;17.80;99.90
27423;DHT22;14878;50.778;0.258;2022-07-23T03:32:04;17.80;99.90
27423;DHT22;14878;50.778;0.258;2022-07-23T03:33:05;17.80;99.90
27423;DHT22;14878;50.778;0.258;2022-07-23T03:34:06;17.90;99.90
27423;DHT22;14878;50.778;0.258;2022-07-23T03:35:07;17.90;99.90
27423;DHT22;14878;50.778;0.258;2022-07-23T03:36:08;17.80;99.90
27423;DHT22;14878;50.778;0.258;2022-07-23T03:37:09;17.80;99.90
27423;DHT22;14878;50.778;0.258;2022-07-23T03:38:09;17.80;99.90
27423;DHT22;14878;50.778;0.258;2022-07-23T03:39:12;17.80;99.90
27423;DHT22;14878;50.778;0.258;2022-07-23T03:40:13;17.80;99.90
27423;DHT22;14878;50.778;0.258;2022-07-23T03:41:14;17.80;99.90
27423;DHT22;14878;50.778;0.258;2022-07-23T03:42:14;17.70;99.90
27423;DHT22;14878;50.778;0.258;2022-07-23T03:43:15;17.70;99.90
27423;DHT22;14878;50.778;0.258;2022-07-23T03:44:16;17.70;99.90
27423;DHT22;14878;50.778;0.258;2022-07-23T03:45:17;17.70;99.90
27423;DHT22;14878;50.778;0.258;2022-07-23T03:46:17;17.80;99.90
27423;DHT22;14878;50.778;0.258;2022-07-23T03:47:18;17.70;99.90
27423;DHT22;14878;50.778;0.258;2022-07-23T03:48:22;17.80;99.90
27423;DHT22;14878;50.778;0.258;2022-07-23T03:49:22;17.70;99.90
27423;DHT22;14878;50.778;0.258;2022-07-23T03:50:24;17.70;99.90
27423;DHT22;14878;50.778;0.258;2022-07-23T03:51:25;17.60;99.90
27423;DHT22;14878;50.778;0.258;2022-07-23T03:52:25;17.50;99.90
27423;DHT22;14878;50.778;0.258;2022-07-23T03:53:26;17.50;99.90
27423;DHT22;14878;50.778;0.258;2022-07-23T03:54:27;17.50;99.90
27423;DHT22;14878;50.778;0.258;2022-07-23T03:55:28;17.60;99.90
27423;DHT22;14878;50.778;0.258;2022-07-23T03:56:29;17.60;99.90
27423;DHT22;14878;50.778;0.258;2022-07-23T03:57:30;17.70;99.90
27423;DHT22;14878;50.778;0.258;2022-07-23T03:58:30;17.70;99.90
27423;DHT22;14878;50.778;0.258;2022-07-23T03:59:31;17.60;99.90
27423;DHT22;14878;50.778;0.258;2022-07-23T04:00:32;17.60;99.90
27423;DHT22;14878;50.778;0.258;2022-07-23T04:01:33;17.70;99.90
27423;DHT22;14878;50.778;0.258;2022-07-23T04:02:33;17.70;99.90
27423;DHT22;14878;50.778;0.258;2022-07-23T04:03:34;17.60;99.90
27423;DHT22;14878;50.778;0.258;2022-07-23T04:04:35;17.60;99.90
27423;DHT22;14878;50.778;0.258;2022-07-23T04:05:36;17.50;99.90
27423;DHT22;14878;50.778;0.258;2022-07-23T04:06:36;17.50;99.90
27423;DHT22;14878;50.778;0.258;2022-07-23T04:07:37;17.40;99.90
27423;DHT22;14878;50.778;0.258;2022-07-23T04:08:38;17.30;99.90
27423;DHT22;14878;50.778;0.258;2022-07-23T04:09:39;17.30;99.90
27423;DHT22;14878;50.778;0.258;2022-07-23T04:10:42;17.20;99.90
27423;DHT22;14878;50.778;0.258;2022-07-23T04:11:43;17.30;99.90
27423;DHT22;14878;50.778;0.258;2022-07-23T04:12:46;17.30;99.90
27423;DHT22;14878;50.778;0.258;2022-07-23T04:13:47;17.30;99.90
27423;DHT22;14878;50.778;0.258;2022-07-23T04:14:48;17.40;99.90
27423;DHT22;14878;50.778;0.258;2022-07-23T04:15:48;17.40;99.90
27423;DHT22;14878;50.778;0.258;2022-07-23T04:16:51;17.40;99.90
27423;DHT22;14878;50.778;0.258;2022-07-23T04:17:51;17.40;99.90
27423;DHT22;14878;50.778;0.258;2022-07-23T04:18:52;17.40;99.90
27423;DHT22;14878;50.778;0.258;2022-07-23T04:19:53;17.30;99.90
27423;DHT22;14878;50.778;0.258;2022-07-23T04:20:53;17.30;99.90
27423;DHT22;14878;50.778;0.258;2022-07-23T04:21:54;17.30;99.90
27423;DHT22;14878;50.778;0.258;2022-07-23T04:22:55;17.40;99.90
27423;DHT22;14878;50.778;0.258;2022-07-23T04:23:56;17.40;99.90
27423;DHT22;14878;50.778;0.258;2022-07-23T04:24:56;17.40;99.90
27423;DHT22;14878;50.778;0.258;2022-07-23T04:25:57;17.30;99.90
27423;DHT22;14878;50.778;0.258;2022-07-23T04:26:58;17.30;99.90
27423;DHT22;14878;50.778;0.258;2022-07-23T04:27:59;17.20;99.90
27423;DHT22;14878;50.778;0.258;2022-07-23T04:28:59;17.10;99.90
27423;DHT22;14878;50.778;0.258;2022-07-23T04:30:00;17.10;99.90
27423;DHT22;14878;50.778;0.258;2022-07-23T04:31:01;17.10;99.90
27423;DHT22;14878;50.778;0.258;2022-07-23T04:32:02;17.20;99.90
27423;DHT22;14878;50.778;0.258;2022-07-23T04:33:03;17.30;99.90
27423;DHT22;14878;50.778;0.258;2022-07-23T04:34:07;17.30;99.90
27423;DHT22;14878;50.778;0.258;2022-07-23T04:35:11;17.40;99.90
27423;DHT22;14878;50.778;0.258;2022-07-23T04:36:11;17.40;99.90
27423;DHT22;14878;50.778;0.258;2022-07-23T04:37:12;17.50;99.90
27423;DHT22;14878;50.778;0.258;2022-07-23T04:38:13;17.50;99.90
27423;DHT22;14878;50.778;0.258;2022-07-23T04:39:14;17.50;99.90
27423;DHT22;14878;50.778;0.258;2022-07-23T04:40:15;17.50;99.90
27423;DHT22;14878;50.778;0.258;2022-07-23T04:41:15;17.60;99.90
27423;DHT22;14878;50.778;0.258;2022-07-23T04:42:16;17.60;99.90
27423;DHT22;14878;50.778;0.258;2022-07-23T04:43:17;17.70;99.90
27423;DHT22;14878;50.778;0.258;2022-07-23T04:44:18;17.80;99.90
27423;DHT22;14878;50.778;0.258;2022-07-23T04:45:18;17.70;99.90
27423;DHT22;14878;50.778;0.258;2022-07-23T04:46:19;17.80;99.90
27423;DHT22;14878;50.778;0.258;2022-07-23T04:47:20;17.70;99.90
27423;DHT22;14878;50.778;0.258;2022-07-23T04:48:21;17.80;99.90
27423;DHT22;14878;50.778;0.258;2022-07-23T04:49:21;17.80;99.90
27423;DHT22;14878;50.778;0.258;2022-07-23T04:50:22;17.80;99.90
27423;DHT22;14878;50.778;0.258;2022-07-23T04:51:23;17.80;99.90
27423;DHT22;14878;50.778;0.258;2022-07-23T04:52:24;17.90;99.90
27423;DHT22;14878;50.778;0.258;2022-07-23T04:53:25;17.90;99.90
27423;DHT22;14878;50.778;0.258;2022-07-23T04:54:25;18.00;99.90
27423;DHT22;14878;50.778;0.258;2022-07-23T04:55:27;18.10;99.90
27423;DHT22;14878;50.778;0.258;2022-07-23T04:56:28;18.10;99.90
27423;DHT22;14878;50.778;0.258;2022-07-23T04:57:28;18.20;99.90
27423;DHT22;14878;50.778;0.258;2022-07-23T04:58:29;18.30;99.90
27423;DHT22;14878;50.778;0.258;2022-07-23T04:59:30;18.30;99.90
27423;DHT22;14878;50.778;0.258;2022-07-23T05:00:31;18.30;99.90
27423;DHT22;14878;50.778;0.258;2022-07-23T05:01:31;18.30;99.90
27423;DHT22;14878;50.778;0.258;2022-07-23T05:02:32;18.30;99.90
27423;DHT22;14878;50.778;0.258;2022-07-23T05:03:33;18.40;99.90
27423;DHT22;14878;50.778;0.258;2022-07-23T05:04:34;18.50;99.90
27423;DHT22;14878;50.778;0.258;2022-07-23T05:05:34;18.50;99.90
27423;DHT22;14878;50.778;0.258;2022-07-23T05:06:36;18.50;99.90
27423;DHT22;14878;50.778;0.258;2022-07-23T05:07:37;18.50;99.90
27423;DHT22;14878;50.778;0.258;2022-07-23T05:08:37;18.50;99.90
27423;DHT22;14878;50.778;0.258;2022-07-23T05:09:44;18.60;99.90
27423;DHT22;14878;50.778;0.258;2022-07-23T05:10:45;18.40;99.90
27423;DHT22;14878;50.778;0.258;2022-07-23T05:11:45;18.40;99.90
27423;DHT22;14878;50.778;0.258;2022-07-23T05:12:46;18.40;99.90
27423;DHT22;14878;50.778;0.258;2022-07-23T05:13:47;18.40;99.90
27423;DHT22;14878;50.778;0.258;2022-07-23T05:14:48;18.40;99.90
27423;DHT22;14878;50.778;0.258;2022-07-23T05:15:51;18.40;99.90
27423;DHT22;14878;50.778;0.258;2022-07-23T05:16:52;18.40;99.90
27423;DHT22;14878;50.778;0.258;2022-07-23T05:17:52;18.50;99.90
27423;DHT22;14878;50.778;0.258;2022-07-23T05:18:53;18.60;99.90
27423;DHT22;14878;50.778;0.258;2022-07-23T05:19:54;18.60;99.90
27423;DHT22;14878;50.778;0.258;2022-07-23T05:20:55;18.70;99.90
27423;DHT22;14878;50.778;0.258;2022-07-23T05:21:58;18.70;99.90
27423;DHT22;14878;50.778;0.258;2022-07-23T05:22:59;18.70;99.90
27423;DHT22;14878;50.778;0.258;2022-07-23T05:24:00;18.40;99.90
27423;DHT22;14878;50.778;0.258;2022-07-23T05:25:00;18.40;99.90
27423;DHT22;14878;50.778;0.258;2022-07-23T05:26:01;18.50;99.90
27423;DHT22;14878;50.778;0.258;2022-07-23T05:27:02;18.50;99.90
27423;DHT22;14878;50.778;0.258;2022-07-23T05:28:03;18.50;99.90
27423;DHT22;14878;50.778;0.258;2022-07-23T05:29:04;18.40;99.90
27423;DHT22;14878;50.778;0.258;2022-07-23T05:30:05;18.30;99.90
27423;DHT22;14878;50.778;0.258;2022-07-23T05:31:06;18.20;99.90
27423;DHT22;14878;50.778;0.258;2022-07-23T05:32:06;18.30;99.90
27423;DHT22;14878;50.778;0.258;2022-07-23T05:33:07;18.30;99.90
27423;DHT22;14878;50.778;0.258;2022-07-23T05:34:08;18.40;99.90
27423;DHT22;14878;50.778;0.258;2022-07-23T05:35:09;18.50;99.90
27423;DHT22;14878;50.778;0.258;2022-07-23T05:36:10;18.70;99.90
27423;DHT22;14878;50.778;0.258;2022-07-23T05:37:11;18.90;99.90
27423;DHT22;14878;50.778;0.258;2022-07-23T05:38:12;19.10;99.90
27423;DHT22;14878;50.778;0.258;2022-07-23T05:39:12;19.20;99.90
27423;DHT22;14878;50.778;0.258;2022-07-23T05:40:16;19.40;99.90
27423;DHT22;14878;50.778;0.258;2022-07-23T05:41:17;19.60;99.90
27423;DHT22;14878;50.778;0.258;2022-07-23T05:42:18;19.80;99.90
27423;DHT22;14878;50.778;0.258;2022-07-23T05:43:18;20.00;99.90
27423;DHT22;14878;50.778;0.258;2022-07-23T05:44:19;20.10;99.90
27423;DHT22;14878;50.778;0.258;2022-07-23T05:45:21;20.30;99.90
27423;DHT22;14878;50.778;0.258;2022-07-23T05:46:22;20.40;99.90
27423;DHT22;14878;50.778;0.258;2022-07-23T05:47:23;20.40;99.90
27423;DHT22;14878;50.778;0.258;2022-07-23T05:48:24;20.30;99.90
27423;DHT22;14878;50.778;0.258;2022-07-23T05:49:25;20.40;99.90
27423;DHT22;14878;50.778;0.258;2022-07-23T05:50:28;20.60;99.90
27423;DHT22;14878;50.778;0.258;2022-07-23T05:51:29;20.80;99.90
27423;DHT22;14878;50.778;0.258;2022-07-23T05:52:32;21.00;99.90
27423;DHT22;14878;50.778;0.258;2022-07-23T05:53:34;21.00;99.90
27423;DHT22;14878;50.778;0.258;2022-07-23T05:54:35;21.20;99.90
27423;DHT22;14878;50.778;0.258;2022-07-23T05:55:36;21.50;99.90
27423;DHT22;14878;50.778;0.258;2022-07-23T05:56:37;21.60;99.90
27423;DHT22;14878;50.778;0.258;2022-07-23T05:57:37;21.50;99.90
27423;DHT22;14878;50.778;0.258;2022-07-23T05:58:38;21.20;99.90
27423;DHT22;14878;50.778;0.258;2022-07-23T05:59:39;21.20;99.90
27423;DHT22;14878;50.778;0.258;2022-07-23T06:00:40;20.80;99.90
27423;DHT22;14878;50.778;0.258;2022-07-23T06:01:40;20.60;99.90
27423;DHT22;14878;50.778;0.258;2022-07-23T06:02:41;20.20;99.90
27423;DHT22;14878;50.778;0.258;2022-07-23T06:03:42;20.00;99.90
27423;DHT22;14878;50.778;0.258;2022-07-23T06:04:43;19.80;99.90
27423;DHT22;14878;50.778;0.258;2022-07-23T06:05:43;19.60;99.90
27423;DHT22;14878;50.778;0.258;2022-07-23T06:06:44;19.50;99.90
27423;DHT22;14878;50.778;0.258;2022-07-23T06:07:45;19.60;99.90
27423;DHT22;14878;50.778;0.258;2022-07-23T06:08:46;19.60;99.90
27423;DHT22;14878;50.778;0.258;2022-07-23T06:09:46;19.60;99.90
27423;DHT22;14878;50.778;0.258;2022-07-23T06:10:49;19.70;99.90
27423;DHT22;14878;50.778;0.258;2022-07-23T06:11:50;19.50;99.90
27423;DHT22;14878;50.778;0.258;2022-07-23T06:12:50;19.40;99.90
27423;DHT22;14878;50.778;0.258;2022-07-23T06:13:51;19.30;99.90
27423;DHT22;14878;50.778;0.258;2022-07-23T06:14:52;19.30;99.90
27423;DHT22;14878;50.778;0.258;2022-07-23T06:15:53;19.20;99.90
27423;DHT22;14878;50.778;0.258;2022-07-23T06:16:53;19.30;99.90
27423;DHT22;14878;50.778;0.258;2022-07-23T06:17:54;19.40;99.90
27423;DHT22;14878;50.778;0.258;2022-07-23T06:18:55;19.60;99.90
27423;DHT22;14878;50.778;0.258;2022-07-23T06:19:56;19.80;99.90
27423;DHT22;14878;50.778;0.258;2022-07-23T06:20:56;20.00;99.90
27423;DHT22;14878;50.778;0.258;2022-07-23T06:21:57;20.50;99.90
27423;DHT22;14878;50.778;0.258;2022-07-23T06:22:58;20.90;99.90
27423;DHT22;14878;50.778;0.258;2022-07-23T06:23:58;21.40;99.90
27423;DHT22;14878;50.778;0.258;2022-07-23T06:24:59;22.00;99.90
27423;DHT22;14878;50.778;0.258;2022-07-23T06:26:00;22.20;99.90